Black Star — 9HA2911 — position and weather

sailwx.info

Track history (hours):
 
Tides and Currents Weather Stations Pressure Air Temp Water Temp Dewpoint Dewpoint Depression Visibility Wind Speed Wind Dir Waves Ship Positions

Black Star

Last reported at 2014-Sep-09 11:29 UTC. Time now 2014-Sep-17 03:37 UTC.
Position N 39°46' E 001°12'.

Length 128 m; draft 5.6 m.

Type: Ship (hazmat cat C). MMSI: 256714000.

Date/timePositionNaut miles runAvg speedWind from/ knotsBaromVisibWave heightAir tempDewpointWater temp
2014-Sep-09 11:29N 39°46' E 001°12'1212.1
2014-Sep-09 10:31N 39°56' E 001°20'1212.1
2014-Sep-09 09:32N 40°06' E 001°28'1212.2
2014-Sep-09 08:33N 40°16' E 001°36'1212.2
2014-Sep-09 07:33N 40°27' E 001°44'1312.0
2014-Sep-09 06:31N 40°38' E 001°53'1212.1
2014-Sep-09 05:33N 40°48' E 002°00'1212.4
2014-Sep-09 04:33N 40°58' E 002°09'1211.7
2014-Sep-09 03:33N 41°09' E 002°14'11 2.2
2014-Sep-08 22:21N 41°20' E 002°09'3 3.7
2014-Sep-08 21:28N 41°17' E 002°11'9 8.4
2014-Sep-08 20:24N 41°11' E 002°20'1011.4
2014-Sep-08 19:31N 41°15' E 002°32'1111.8
2014-Sep-08 18:33N 41°20' E 002°46'1411.9
2014-Sep-08 17:24N 41°25' E 003°03'1212.2
2014-Sep-08 16:23N 41°30' E 003°18'1112.4
2014-Sep-08 15:32N 41°35' E 003°30'1711.9
2014-Sep-08 14:05N 41°42' E 003°51'812.2
2014-Sep-08 13:26N 41°45' E 004°01'1312.3
2014-Sep-08 12:24N 41°50' E 004°17'1611.8
2014-Sep-08 11:05N 41°56' E 004°36'811.7
2014-Sep-08 10:22N 41°60' E 004°46'1311.8
2014-Sep-08 09:17N 42°06' E 005°01'3211.7
2014-Sep-08 06:32N 42°22' E 005°39'1211.8
2014-Sep-08 05:33N 42°29' E 005°52'1212.0
2014-Sep-08 04:33N 42°35' E 006°06'1212.1
2014-Sep-08 03:33N 42°41' E 006°20'1212.0
2014-Sep-08 02:33N 42°47' E 006°34'1212.2
2014-Sep-08 01:33N 42°54' E 006°47'1212.1
2014-Sep-08 00:33N 43°01' E 007°01'1212.2
2014-Sep-07 23:33N 43°10' E 007°13'1712.0
2014-Sep-07 22:08N 43°21' E 007°30'2411.9
2014-Sep-07 20:07N 43°36' E 007°56'2411.8
2014-Sep-07 18:06N 43°49' E 008°24'712.8
2014-Sep-07 17:33N 43°55' E 008°28'1312.5
2014-Sep-07 16:31N 44°07' E 008°36'1111.9
2014-Sep-07 15:33N 44°17' E 008°43'9 0.3
2014-Sep-06 11:24N 44°25' E 008°50'0 0.0
2014-Sep-06 06:33N 44°25' E 008°50'4 3.9
2014-Sep-06 05:33N 44°22' E 008°47'1111.0
2014-Sep-06 04:33N 44°11' E 008°48'1110.9
2014-Sep-06 03:34N 44°00' E 008°49'1111.2
2014-Sep-06 02:33N 43°49' E 008°52'1111.2
2014-Sep-06 01:33N 43°39' E 008°60'1111.2
2014-Sep-06 00:34N 43°31' E 009°09'1110.8
2014-Sep-05 23:34N 43°22' E 009°17'1110.4
2014-Sep-05 22:32N 43°13' E 009°26'1311.1
2014-Sep-05 21:23N 43°02' E 009°35'4511.3
2014-Sep-05 17:24N 42°19' E 009°51'35511.5
2014-Sep-04 10:33N 38°23' E 015°39'9 9.2
2014-Sep-04 09:32N 38°14' E 015°37'10 9.0
2014-Sep-04 08:28N 38°04' E 015°37'  
2014-Sep-02 02:05N 34°35' E 028°03'  
Track history (hours):
 
Tides and Currents Weather Stations Pressure Air Temp Water Temp Dewpoint Dewpoint Depression Visibility Wind Speed Wind Dir Waves Ship Positions

Black Star

Last reported at 2014-Sep-09 11:29 UTC. Time now 2014-Sep-17 03:37 UTC.
Position N 39°46' E 001°12'.

Length 128 m; draft 5.6 m.

Type: Ship (hazmat cat C). MMSI: 256714000.

Date/timePositionNaut miles runAvg speedWind from/ knotsBaromVisibWave heightAir tempDewpointWater temp
2014-Sep-09 11:29N 39°46' E 001°12'1212.1
2014-Sep-09 10:31N 39°56' E 001°20'1212.1
2014-Sep-09 09:32N 40°06' E 001°28'1212.2
2014-Sep-09 08:33N 40°16' E 001°36'1212.2
2014-Sep-09 07:33N 40°27' E 001°44'1312.0
2014-Sep-09 06:31N 40°38' E 001°53'1212.1
2014-Sep-09 05:33N 40°48' E 002°00'1212.4
2014-Sep-09 04:33N 40°58' E 002°09'1211.7
2014-Sep-09 03:33N 41°09' E 002°14'11 2.2
2014-Sep-08 22:21N 41°20' E 002°09'3 3.7
2014-Sep-08 21:28N 41°17' E 002°11'9 8.4
2014-Sep-08 20:24N 41°11' E 002°20'1011.4
2014-Sep-08 19:31N 41°15' E 002°32'1111.8
2014-Sep-08 18:33N 41°20' E 002°46'1411.9
2014-Sep-08 17:24N 41°25' E 003°03'1212.2
2014-Sep-08 16:23N 41°30' E 003°18'1112.4
2014-Sep-08 15:32N 41°35' E 003°30'1711.9
2014-Sep-08 14:05N 41°42' E 003°51'812.2
2014-Sep-08 13:26N 41°45' E 004°01'1312.3
2014-Sep-08 12:24N 41°50' E 004°17'1611.8
2014-Sep-08 11:05N 41°56' E 004°36'811.7
2014-Sep-08 10:22N 41°60' E 004°46'1311.8
2014-Sep-08 09:17N 42°06' E 005°01'3211.7
2014-Sep-08 06:32N 42°22' E 005°39'1211.8
2014-Sep-08 05:33N 42°29' E 005°52'1212.0
2014-Sep-08 04:33N 42°35' E 006°06'1212.1
2014-Sep-08 03:33N 42°41' E 006°20'1212.0
2014-Sep-08 02:33N 42°47' E 006°34'1212.2
2014-Sep-08 01:33N 42°54' E 006°47'1212.1
2014-Sep-08 00:33N 43°01' E 007°01'1212.2
2014-Sep-07 23:33N 43°10' E 007°13'1712.0
2014-Sep-07 22:08N 43°21' E 007°30'2411.9
2014-Sep-07 20:07N 43°36' E 007°56'2411.8
2014-Sep-07 18:06N 43°49' E 008°24'712.8
2014-Sep-07 17:33N 43°55' E 008°28'1312.5
2014-Sep-07 16:31N 44°07' E 008°36'1111.9
2014-Sep-07 15:33N 44°17' E 008°43'9 0.3
2014-Sep-06 11:24N 44°25' E 008°50'0 0.0
2014-Sep-06 06:33N 44°25' E 008°50'4 3.9
2014-Sep-06 05:33N 44°22' E 008°47'1111.0
2014-Sep-06 04:33N 44°11' E 008°48'1110.9
2014-Sep-06 03:34N 44°00' E 008°49'1111.2
2014-Sep-06 02:33N 43°49' E 008°52'1111.2
2014-Sep-06 01:33N 43°39' E 008°60'1111.2
2014-Sep-06 00:34N 43°31' E 009°09'1110.8
2014-Sep-05 23:34N 43°22' E 009°17'1110.4
2014-Sep-05 22:32N 43°13' E 009°26'1311.1
2014-Sep-05 21:23N 43°02' E 009°35'4511.3
2014-Sep-05 17:24N 42°19' E 009°51'35511.5
2014-Sep-04 10:33N 38°23' E 015°39'9 9.2
2014-Sep-04 09:32N 38°14' E 015°37'10 9.0
2014-Sep-04 08:28N 38°04' E 015°37'  
2014-Sep-02 02:05N 34°35' E 028°03'  

Dump ship's entire track history